sensor_id;sensor_type;location;lat;lon;timestamp;temperature;humidity
17202;DHT22;8717;53.588;10.176;2022-12-11T00:01:18;-2.20;99.90
17202;DHT22;8717;53.588;10.176;2022-12-11T00:03:46;-2.20;99.90
17202;DHT22;8717;53.588;10.176;2022-12-11T00:06:17;-2.20;99.90
17202;DHT22;8717;53.588;10.176;2022-12-11T00:08:44;-2.10;99.90
17202;DHT22;8717;53.588;10.176;2022-12-11T00:11:12;-2.10;99.90
17202;DHT22;8717;53.588;10.176;2022-12-11T00:13:39;-2.10;99.90
17202;DHT22;8717;53.588;10.176;2022-12-11T00:16:06;-2.10;99.90
17202;DHT22;8717;53.588;10.176;2022-12-11T00:18:34;-2.20;99.90
17202;DHT22;8717;53.588;10.176;2022-12-11T00:21:03;-2.20;99.90
17202;DHT22;8717;53.588;10.176;2022-12-11T00:23:33;-2.20;99.90
17202;DHT22;8717;53.588;10.176;2022-12-11T00:26:03;-2.30;99.90
17202;DHT22;8717;53.588;10.176;2022-12-11T00:28:31;-2.30;99.90
17202;DHT22;8717;53.588;10.176;2022-12-11T00:31:01;-2.30;99.90
17202;DHT22;8717;53.588;10.176;2022-12-11T00:33:28;-2.30;99.90
17202;DHT22;8717;53.588;10.176;2022-12-11T00:35:55;-2.30;99.90
17202;DHT22;8717;53.588;10.176;2022-12-11T00:38:22;-2.20;99.90
17202;DHT22;8717;53.588;10.176;2022-12-11T00:40:50;-2.20;99.90
17202;DHT22;8717;53.588;10.176;2022-12-11T00:43:17;-2.20;99.90
17202;DHT22;8717;53.588;10.176;2022-12-11T00:45:45;-2.20;99.90
17202;DHT22;8717;53.588;10.176;2022-12-11T00:48:12;-2.10;99.90
17202;DHT22;8717;53.588;10.176;2022-12-11T00:50:40;-2.10;99.90
17202;DHT22;8717;53.588;10.176;2022-12-11T00:53:07;-2.10;99.90
17202;DHT22;8717;53.588;10.176;2022-12-11T00:55:36;-2.10;99.90
17202;DHT22;8717;53.588;10.176;2022-12-11T00:58:04;-2.10;99.90
17202;DHT22;8717;53.588;10.176;2022-12-11T01:00:31;-2.10;99.90
17202;DHT22;8717;53.588;10.176;2022-12-11T01:02:58;-2.00;99.90
17202;DHT22;8717;53.588;10.176;2022-12-11T01:05:25;-2.00;99.90
17202;DHT22;8717;53.588;10.176;2022-12-11T01:07:52;-2.00;99.90
17202;DHT22;8717;53.588;10.176;2022-12-11T01:10:19;-2.00;99.90
17202;DHT22;8717;53.588;10.176;2022-12-11T01:12:54;-2.00;99.90
17202;DHT22;8717;53.588;10.176;2022-12-11T01:15:24;-2.00;99.90
17202;DHT22;8717;53.588;10.176;2022-12-11T01:17:52;-2.00;99.90
17202;DHT22;8717;53.588;10.176;2022-12-11T01:20:20;-2.00;99.90
17202;DHT22;8717;53.588;10.176;2022-12-11T01:22:48;-2.00;99.90
17202;DHT22;8717;53.588;10.176;2022-12-11T01:25:17;-2.00;99.90
17202;DHT22;8717;53.588;10.176;2022-12-11T01:27:44;-2.00;99.90
17202;DHT22;8717;53.588;10.176;2022-12-11T01:30:12;-2.00;99.90
17202;DHT22;8717;53.588;10.176;2022-12-11T01:32:40;-2.00;99.90
17202;DHT22;8717;53.588;10.176;2022-12-11T01:35:08;-2.00;99.90
17202;DHT22;8717;53.588;10.176;2022-12-11T01:37:35;-2.00;99.90
17202;DHT22;8717;53.588;10.176;2022-12-11T01:40:02;-2.00;99.90
17202;DHT22;8717;53.588;10.176;2022-12-11T01:42:29;-2.10;99.90
17202;DHT22;8717;53.588;10.176;2022-12-11T01:45:30;-2.10;99.90
17202;DHT22;8717;53.588;10.176;2022-12-11T01:48:04;-2.10;99.90
17202;DHT22;8717;53.588;10.176;2022-12-11T01:50:35;-2.10;99.90
17202;DHT22;8717;53.588;10.176;2022-12-11T01:53:05;-2.10;99.90
17202;DHT22;8717;53.588;10.176;2022-12-11T01:55:33;-2.10;99.90
17202;DHT22;8717;53.588;10.176;2022-12-11T01:58:01;-2.10;99.90
17202;DHT22;8717;53.588;10.176;2022-12-11T02:00:28;-2.10;99.90
17202;DHT22;8717;53.588;10.176;2022-12-11T02:02:54;-2.10;99.90
17202;DHT22;8717;53.588;10.176;2022-12-11T02:05:22;-2.10;99.90
17202;DHT22;8717;53.588;10.176;2022-12-11T02:07:52;-2.20;99.90
17202;DHT22;8717;53.588;10.176;2022-12-11T02:10:21;-2.20;99.90
17202;DHT22;8717;53.588;10.176;2022-12-11T02:12:53;-2.10;99.90
17202;DHT22;8717;53.588;10.176;2022-12-11T02:15:28;-2.20;99.90
17202;DHT22;8717;53.588;10.176;2022-12-11T02:18:06;-2.10;99.90
17202;DHT22;8717;53.588;10.176;2022-12-11T02:20:40;-2.10;99.90
17202;DHT22;8717;53.588;10.176;2022-12-11T02:23:24;-2.10;99.90
17202;DHT22;8717;53.588;10.176;2022-12-11T02:26:02;-2.10;99.90
17202;DHT22;8717;53.588;10.176;2022-12-11T02:28:37;-2.10;99.90
17202;DHT22;8717;53.588;10.176;2022-12-11T02:31:08;-2.10;99.90
17202;DHT22;8717;53.588;10.176;2022-12-11T02:33:40;-2.20;99.90
17202;DHT22;8717;53.588;10.176;2022-12-11T02:36:09;-2.20;99.90
17202;DHT22;8717;53.588;10.176;2022-12-11T02:38:38;-2.20;99.90
17202;DHT22;8717;53.588;10.176;2022-12-11T02:41:07;-2.20;99.90
17202;DHT22;8717;53.588;10.176;2022-12-11T02:43:37;-2.20;99.90
17202;DHT22;8717;53.588;10.176;2022-12-11T02:46:06;-2.20;99.90
17202;DHT22;8717;53.588;10.176;2022-12-11T02:48:33;-2.20;99.90
17202;DHT22;8717;53.588;10.176;2022-12-11T02:51:02;-2.20;99.90
17202;DHT22;8717;53.588;10.176;2022-12-11T02:53:31;-2.20;99.90
17202;DHT22;8717;53.588;10.176;2022-12-11T02:56:05;-2.20;99.90
17202;DHT22;8717;53.588;10.176;2022-12-11T02:58:36;-2.20;99.90
17202;DHT22;8717;53.588;10.176;2022-12-11T03:01:09;-2.20;99.90
17202;DHT22;8717;53.588;10.176;2022-12-11T03:03:35;-2.20;99.90
17202;DHT22;8717;53.588;10.176;2022-12-11T03:06:03;-2.20;99.90
17202;DHT22;8717;53.588;10.176;2022-12-11T03:08:31;-2.30;99.90
17202;DHT22;8717;53.588;10.176;2022-12-11T03:10:58;-2.20;99.90
17202;DHT22;8717;53.588;10.176;2022-12-11T03:13:25;-2.30;99.90
17202;DHT22;8717;53.588;10.176;2022-12-11T03:16:03;-2.30;99.90
17202;DHT22;8717;53.588;10.176;2022-12-11T03:18:38;-2.20;99.90
17202;DHT22;8717;53.588;10.176;2022-12-11T03:21:08;-2.20;99.90
17202;DHT22;8717;53.588;10.176;2022-12-11T03:23:42;-2.30;99.90
17202;DHT22;8717;53.588;10.176;2022-12-11T03:26:13;-2.30;99.90
17202;DHT22;8717;53.588;10.176;2022-12-11T03:28:44;-2.30;99.90
17202;DHT22;8717;53.588;10.176;2022-12-11T03:31:16;-2.30;99.90
17202;DHT22;8717;53.588;10.176;2022-12-11T03:33:47;-2.30;99.90
17202;DHT22;8717;53.588;10.176;2022-12-11T03:36:18;-2.30;99.90
17202;DHT22;8717;53.588;10.176;2022-12-11T03:38:49;-2.40;99.90
17202;DHT22;8717;53.588;10.176;2022-12-11T03:41:19;-2.40;99.90
17202;DHT22;8717;53.588;10.176;2022-12-11T03:43:48;-2.50;99.90
17202;DHT22;8717;53.588;10.176;2022-12-11T03:46:20;-2.50;99.90
17202;DHT22;8717;53.588;10.176;2022-12-11T03:48:48;-2.50;99.90
17202;DHT22;8717;53.588;10.176;2022-12-11T03:51:16;-2.50;99.90
17202;DHT22;8717;53.588;10.176;2022-12-11T03:53:45;-2.60;99.90
17202;DHT22;8717;53.588;10.176;2022-12-11T03:56:13;-2.60;99.90
17202;DHT22;8717;53.588;10.176;2022-12-11T03:58:41;-2.60;99.90
17202;DHT22;8717;53.588;10.176;2022-12-11T04:01:08;-2.60;99.90
17202;DHT22;8717;53.588;10.176;2022-12-11T04:03:37;-2.60;99.90
17202;DHT22;8717;53.588;10.176;2022-12-11T04:06:05;-2.60;99.90
17202;DHT22;8717;53.588;10.176;2022-12-11T04:08:31;-2.70;99.90
17202;DHT22;8717;53.588;10.176;2022-12-11T04:10:58;-2.70;99.90
17202;DHT22;8717;53.588;10.176;2022-12-11T04:13:42;-2.70;99.90
17202;DHT22;8717;53.588;10.176;2022-12-11T04:16:09;-2.70;99.90
17202;DHT22;8717;53.588;10.176;2022-12-11T04:18:36;-2.70;99.90
17202;DHT22;8717;53.588;10.176;2022-12-11T04:21:21;-2.60;99.90
17202;DHT22;8717;53.588;10.176;2022-12-11T04:24:05;-2.70;99.90
17202;DHT22;8717;53.588;10.176;2022-12-11T04:26:42;-2.60;99.90
17202;DHT22;8717;53.588;10.176;2022-12-11T04:29:09;-2.60;99.90
17202;DHT22;8717;53.588;10.176;2022-12-11T04:31:36;-2.60;99.90
17202;DHT22;8717;53.588;10.176;2022-12-11T04:34:04;-2.60;99.90
17202;DHT22;8717;53.588;10.176;2022-12-11T04:36:30;-2.60;99.90
17202;DHT22;8717;53.588;10.176;2022-12-11T04:38:57;-2.60;99.90
17202;DHT22;8717;53.588;10.176;2022-12-11T04:41:24;-2.50;99.90
17202;DHT22;8717;53.588;10.176;2022-12-11T04:43:50;-2.50;99.90
17202;DHT22;8717;53.588;10.176;2022-12-11T04:46:19;-2.50;99.90
17202;DHT22;8717;53.588;10.176;2022-12-11T04:48:47;-2.50;99.90
17202;DHT22;8717;53.588;10.176;2022-12-11T04:51:16;-2.40;99.90
17202;DHT22;8717;53.588;10.176;2022-12-11T04:53:44;-2.40;99.90
17202;DHT22;8717;53.588;10.176;2022-12-11T04:56:13;-2.40;99.90
17202;DHT22;8717;53.588;10.176;2022-12-11T04:58:41;-2.40;99.90
17202;DHT22;8717;53.588;10.176;2022-12-11T05:01:08;-2.40;99.90
17202;DHT22;8717;53.588;10.176;2022-12-11T05:03:35;-2.40;99.90
17202;DHT22;8717;53.588;10.176;2022-12-11T05:06:02;-2.40;99.90
17202;DHT22;8717;53.588;10.176;2022-12-11T05:08:32;-2.40;99.90
17202;DHT22;8717;53.588;10.176;2022-12-11T05:11:01;-2.40;99.90
17202;DHT22;8717;53.588;10.176;2022-12-11T05:13:29;-2.40;99.90
17202;DHT22;8717;53.588;10.176;2022-12-11T05:15:57;-2.40;99.90
17202;DHT22;8717;53.588;10.176;2022-12-11T05:18:24;-2.40;99.90
17202;DHT22;8717;53.588;10.176;2022-12-11T05:20:55;-2.40;99.90
17202;DHT22;8717;53.588;10.176;2022-12-11T05:23:22;-2.40;99.90
17202;DHT22;8717;53.588;10.176;2022-12-11T05:25:52;-2.50;99.90
17202;DHT22;8717;53.588;10.176;2022-12-11T05:28:19;-2.40;99.90
17202;DHT22;8717;53.588;10.176;2022-12-11T05:30:46;-2.60;99.90
17202;DHT22;8717;53.588;10.176;2022-12-11T05:33:12;-2.60;99.90
17202;DHT22;8717;53.588;10.176;2022-12-11T05:35:46;-2.70;99.90
17202;DHT22;8717;53.588;10.176;2022-12-11T05:38:13;-2.80;99.90
17202;DHT22;8717;53.588;10.176;2022-12-11T05:40:40;-2.80;99.90
17202;DHT22;8717;53.588;10.176;2022-12-11T05:43:08;-2.90;99.90
17202;DHT22;8717;53.588;10.176;2022-12-11T05:45:36;-3.00;99.90
17202;DHT22;8717;53.588;10.176;2022-12-11T05:48:03;-3.10;99.90
17202;DHT22;8717;53.588;10.176;2022-12-11T05:50:29;-3.20;99.90
17202;DHT22;8717;53.588;10.176;2022-12-11T05:52:59;-3.30;99.90
17202;DHT22;8717;53.588;10.176;2022-12-11T05:55:25;-3.40;99.90
17202;DHT22;8717;53.588;10.176;2022-12-11T05:57:52;-3.50;99.90
17202;DHT22;8717;53.588;10.176;2022-12-11T06:00:20;-3.50;99.90
17202;DHT22;8717;53.588;10.176;2022-12-11T06:02:47;-3.60;99.90
17202;DHT22;8717;53.588;10.176;2022-12-11T06:05:13;-3.70;99.90
17202;DHT22;8717;53.588;10.176;2022-12-11T06:07:40;-3.80;99.90
17202;DHT22;8717;53.588;10.176;2022-12-11T06:10:08;-3.90;99.90
17202;DHT22;8717;53.588;10.176;2022-12-11T06:12:35;-4.00;99.90
17202;DHT22;8717;53.588;10.176;2022-12-11T06:15:02;-4.00;99.90
17202;DHT22;8717;53.588;10.176;2022-12-11T06:17:32;-4.10;99.90
17202;DHT22;8717;53.588;10.176;2022-12-11T06:20:00;-4.20;99.90
17202;DHT22;8717;53.588;10.176;2022-12-11T06:22:27;-4.30;99.90
17202;DHT22;8717;53.588;10.176;2022-12-11T06:24:54;-4.30;99.90
17202;DHT22;8717;53.588;10.176;2022-12-11T06:27:22;-4.40;99.90
17202;DHT22;8717;53.588;10.176;2022-12-11T06:29:49;-4.50;99.90
17202;DHT22;8717;53.588;10.176;2022-12-11T06:32:16;-4.50;99.90
17202;DHT22;8717;53.588;10.176;2022-12-11T06:34:44;-4.60;99.90
17202;DHT22;8717;53.588;10.176;2022-12-11T06:37:10;-4.60;99.90
17202;DHT22;8717;53.588;10.176;2022-12-11T06:39:37;-4.70;99.90
17202;DHT22;8717;53.588;10.176;2022-12-11T06:42:04;-4.70;99.90
17202;DHT22;8717;53.588;10.176;2022-12-11T06:44:30;-4.80;99.90
17202;DHT22;8717;53.588;10.176;2022-12-11T06:46:57;-4.80;99.90
17202;DHT22;8717;53.588;10.176;2022-12-11T06:49:24;-4.90;99.90
17202;DHT22;8717;53.588;10.176;2022-12-11T06:51:52;-4.90;99.90
17202;DHT22;8717;53.588;10.176;2022-12-11T06:54:18;-4.90;99.90
17202;DHT22;8717;53.588;10.176;2022-12-11T06:56:45;-5.00;99.90
17202;DHT22;8717;53.588;10.176;2022-12-11T06:59:12;-5.10;99.90
17202;DHT22;8717;53.588;10.176;2022-12-11T07:01:39;-5.10;99.90
17202;DHT22;8717;53.588;10.176;2022-12-11T07:04:07;-5.10;99.90
17202;DHT22;8717;53.588;10.176;2022-12-11T07:06:34;-5.20;99.90
17202;DHT22;8717;53.588;10.176;2022-12-11T07:09:04;-5.20;99.90
17202;DHT22;8717;53.588;10.176;2022-12-11T07:11:30;-5.30;99.90
17202;DHT22;8717;53.588;10.176;2022-12-11T07:13:58;-5.40;99.90
17202;DHT22;8717;53.588;10.176;2022-12-11T07:16:25;-5.40;99.90
17202;DHT22;8717;53.588;10.176;2022-12-11T07:18:54;-5.40;99.90
17202;DHT22;8717;53.588;10.176;2022-12-11T07:21:21;-5.50;99.90
17202;DHT22;8717;53.588;10.176;2022-12-11T07:23:49;-5.50;99.90
17202;DHT22;8717;53.588;10.176;2022-12-11T07:26:19;-5.50;99.90
17202;DHT22;8717;53.588;10.176;2022-12-11T07:28:46;-5.60;99.90
17202;DHT22;8717;53.588;10.176;2022-12-11T07:31:14;-5.60;99.90
17202;DHT22;8717;53.588;10.176;2022-12-11T07:33:42;-5.60;99.90
17202;DHT22;8717;53.588;10.176;2022-12-11T07:36:11;-5.60;99.90
17202;DHT22;8717;53.588;10.176;2022-12-11T07:38:38;-5.60;99.90
17202;DHT22;8717;53.588;10.176;2022-12-11T07:41:07;-5.60;99.90
17202;DHT22;8717;53.588;10.176;2022-12-11T07:43:35;-5.60;99.90
17202;DHT22;8717;53.588;10.176;2022-12-11T07:46:04;-5.60;99.90
17202;DHT22;8717;53.588;10.176;2022-12-11T07:48:33;-5.50;99.90
17202;DHT22;8717;53.588;10.176;2022-12-11T07:51:08;-5.40;99.90
17202;DHT22;8717;53.588;10.176;2022-12-11T07:53:35;-5.30;99.90
17202;DHT22;8717;53.588;10.176;2022-12-11T07:56:03;-5.20;99.90
17202;DHT22;8717;53.588;10.176;2022-12-11T07:58:29;-5.10;99.90
17202;DHT22;8717;53.588;10.176;2022-12-11T08:00:57;-5.00;99.90
17202;DHT22;8717;53.588;10.176;2022-12-11T08:03:27;-4.90;99.90
17202;DHT22;8717;53.588;10.176;2022-12-11T08:05:54;-4.90;99.90
17202;DHT22;8717;53.588;10.176;2022-12-11T08:08:20;-4.80;99.90
17202;DHT22;8717;53.588;10.176;2022-12-11T08:10:47;-4.80;99.90
17202;DHT22;8717;53.588;10.176;2022-12-11T08:13:14;-4.70;99.90
17202;DHT22;8717;53.588;10.176;2022-12-11T08:15:41;-4.70;99.90
17202;DHT22;8717;53.588;10.176;2022-12-11T08:18:09;-4.60;99.90
17202;DHT22;8717;53.588;10.176;2022-12-11T08:20:36;-4.40;99.90
17202;DHT22;8717;53.588;10.176;2022-12-11T08:23:03;-4.30;99.90
17202;DHT22;8717;53.588;10.176;2022-12-11T08:25:30;-4.10;99.90
17202;DHT22;8717;53.588;10.176;2022-12-11T08:27:56;-3.80;99.90
17202;DHT22;8717;53.588;10.176;2022-12-11T08:30:23;-3.50;99.90
17202;DHT22;8717;53.588;10.176;2022-12-11T08:32:52;-3.10;99.90
17202;DHT22;8717;53.588;10.176;2022-12-11T08:35:20;-2.70;99.90
17202;DHT22;8717;53.588;10.176;2022-12-11T08:37:47;-2.30;99.90
17202;DHT22;8717;53.588;10.176;2022-12-11T08:40:15;-1.90;99.90
17202;DHT22;8717;53.588;10.176;2022-12-11T08:42:42;-1.60;99.90
17202;DHT22;8717;53.588;10.176;2022-12-11T08:45:09;-1.10;99.90
17202;DHT22;8717;53.588;10.176;2022-12-11T08:47:36;-0.80;99.90
17202;DHT22;8717;53.588;10.176;2022-12-11T08:50:03;-0.50;99.90
17202;DHT22;8717;53.588;10.176;2022-12-11T08:52:33;-0.20;99.90
17202;DHT22;8717;53.588;10.176;2022-12-11T08:55:00;0.20;99.90
17202;DHT22;8717;53.588;10.176;2022-12-11T08:57:26;0.50;99.90
17202;DHT22;8717;53.588;10.176;2022-12-11T08:59:54;0.80;99.90
17202;DHT22;8717;53.588;10.176;2022-12-11T09:02:20;1.10;99.90
17202;DHT22;8717;53.588;10.176;2022-12-11T09:04:47;1.30;99.90
17202;DHT22;8717;53.588;10.176;2022-12-11T09:07:15;1.60;99.90
17202;DHT22;8717;53.588;10.176;2022-12-11T09:09:43;1.90;99.90
17202;DHT22;8717;53.588;10.176;2022-12-11T09:12:10;2.20;99.90
17202;DHT22;8717;53.588;10.176;2022-12-11T09:14:37;2.40;99.90
17202;DHT22;8717;53.588;10.176;2022-12-11T09:17:04;2.70;99.90
17202;DHT22;8717;53.588;10.176;2022-12-11T09:19:31;2.90;99.90
17202;DHT22;8717;53.588;10.176;2022-12-11T09:21:58;3.10;99.90
17202;DHT22;8717;53.588;10.176;2022-12-11T09:24:24;3.30;99.90
17202;DHT22;8717;53.588;10.176;2022-12-11T09:26:52;3.50;99.90
17202;DHT22;8717;53.588;10.176;2022-12-11T09:29:19;3.70;99.90
17202;DHT22;8717;53.588;10.176;2022-12-11T09:31:46;3.80;99.90
17202;DHT22;8717;53.588;10.176;2022-12-11T09:34:22;4.00;99.90
17202;DHT22;8717;53.588;10.176;2022-12-11T09:36:52;4.20;99.90
17202;DHT22;8717;53.588;10.176;2022-12-11T09:39:19;4.30;99.90
17202;DHT22;8717;53.588;10.176;2022-12-11T09:41:51;4.40;99.90
17202;DHT22;8717;53.588;10.176;2022-12-11T09:44:30;4.50;99.90
17202;DHT22;8717;53.588;10.176;2022-12-11T09:46:58;4.60;99.90
17202;DHT22;8717;53.588;10.176;2022-12-11T09:49:31;4.80;99.90
17202;DHT22;8717;53.588;10.176;2022-12-11T09:52:07;4.80;99.90
17202;DHT22;8717;53.588;10.176;2022-12-11T09:54:37;5.00;99.70
17202;DHT22;8717;53.588;10.176;2022-12-11T09:57:15;5.10;99.90
17202;DHT22;8717;53.588;10.176;2022-12-11T10:00:04;5.10;99.30
17202;DHT22;8717;53.588;10.176;2022-12-11T10:02:51;5.20;98.90
17202;DHT22;8717;53.588;10.176;2022-12-11T10:05:27;5.20;98.30
17202;DHT22;8717;53.588;10.176;2022-12-11T10:08:03;5.20;98.50
17202;DHT22;8717;53.588;10.176;2022-12-11T10:10:37;5.00;97.40
17202;DHT22;8717;53.588;10.176;2022-12-11T10:13:15;4.90;97.90
17202;DHT22;8717;53.588;10.176;2022-12-11T10:15:49;4.70;97.80
17202;DHT22;8717;53.588;10.176;2022-12-11T10:18:22;4.60;97.70
17202;DHT22;8717;53.588;10.176;2022-12-11T10:20:51;4.30;97.50
17202;DHT22;8717;53.588;10.176;2022-12-11T10:23:20;4.10;97.70
17202;DHT22;8717;53.588;10.176;2022-12-11T10:25:51;3.90;98.10
17202;DHT22;8717;53.588;10.176;2022-12-11T10:28:19;3.70;98.50
17202;DHT22;8717;53.588;10.176;2022-12-11T10:30:53;3.60;99.00
17202;DHT22;8717;53.588;10.176;2022-12-11T10:33:26;3.60;98.90
17202;DHT22;8717;53.588;10.176;2022-12-11T10:35:55;3.60;99.10
17202;DHT22;8717;53.588;10.176;2022-12-11T10:38:27;3.60;99.40
17202;DHT22;8717;53.588;10.176;2022-12-11T10:40:57;3.50;98.50
17202;DHT22;8717;53.588;10.176;2022-12-11T10:43:36;3.40;98.50
17202;DHT22;8717;53.588;10.176;2022-12-11T10:46:15;3.30;98.40
17202;DHT22;8717;53.588;10.176;2022-12-11T10:48:46;3.20;98.70
17202;DHT22;8717;53.588;10.176;2022-12-11T10:51:14;3.10;98.60
17202;DHT22;8717;53.588;10.176;2022-12-11T10:53:41;3.00;98.90
17202;DHT22;8717;53.588;10.176;2022-12-11T10:56:11;2.80;98.90
17202;DHT22;8717;53.588;10.176;2022-12-11T10:58:47;2.70;98.90
17202;DHT22;8717;53.588;10.176;2022-12-11T11:01:20;2.50;98.70
17202;DHT22;8717;53.588;10.176;2022-12-11T11:03:57;2.40;98.70
17202;DHT22;8717;53.588;10.176;2022-12-11T11:06:26;2.20;98.30
17202;DHT22;8717;53.588;10.176;2022-12-11T11:08:55;2.00;98.50
17202;DHT22;8717;53.588;10.176;2022-12-11T11:11:25;1.80;98.50
17202;DHT22;8717;53.588;10.176;2022-12-11T11:14:12;1.60;99.10
17202;DHT22;8717;53.588;10.176;2022-12-11T11:16:42;1.40;99.40
17202;DHT22;8717;53.588;10.176;2022-12-11T11:19:17;1.20;99.50
17202;DHT22;8717;53.588;10.176;2022-12-11T11:21:48;1.10;99.70
17202;DHT22;8717;53.588;10.176;2022-12-11T11:24:26;1.10;99.90
17202;DHT22;8717;53.588;10.176;2022-12-11T11:26:54;1.10;99.90
17202;DHT22;8717;53.588;10.176;2022-12-11T11:29:26;1.00;99.90
17202;DHT22;8717;53.588;10.176;2022-12-11T11:31:56;1.00;98.80
17202;DHT22;8717;53.588;10.176;2022-12-11T11:34:22;0.90;98.60
17202;DHT22;8717;53.588;10.176;2022-12-11T11:36:59;0.70;98.90
17202;DHT22;8717;53.588;10.176;2022-12-11T11:39:34;0.60;99.30
17202;DHT22;8717;53.588;10.176;2022-12-11T11:42:09;0.50;99.80
17202;DHT22;8717;53.588;10.176;2022-12-11T11:44:40;0.40;99.90
17202;DHT22;8717;53.588;10.176;2022-12-11T11:47:13;0.30;99.90
17202;DHT22;8717;53.588;10.176;2022-12-11T11:49:48;0.30;99.90
17202;DHT22;8717;53.588;10.176;2022-12-11T11:52:20;0.20;99.40
17202;DHT22;8717;53.588;10.176;2022-12-11T11:54:54;0.10;99.60
17202;DHT22;8717;53.588;10.176;2022-12-11T11:57:31;0.00;99.90
17202;DHT22;8717;53.588;10.176;2022-12-11T12:00:05;-0.10;99.90
17202;DHT22;8717;53.588;10.176;2022-12-11T12:02:42;-0.10;99.90
17202;DHT22;8717;53.588;10.176;2022-12-11T12:05:19;-0.10;99.90
17202;DHT22;8717;53.588;10.176;2022-12-11T12:07:58;-0.10;99.90
17202;DHT22;8717;53.588;10.176;2022-12-11T12:10:34;0.00;99.90
17202;DHT22;8717;53.588;10.176;2022-12-11T12:13:14;0.00;99.90
17202;DHT22;8717;53.588;10.176;2022-12-11T12:15:47;0.10;99.90
17202;DHT22;8717;53.588;10.176;2022-12-11T12:18:23;0.20;99.90
17202;DHT22;8717;53.588;10.176;2022-12-11T12:20:57;0.20;99.90
17202;DHT22;8717;53.588;10.176;2022-12-11T12:23:43;0.30;99.90
17202;DHT22;8717;53.588;10.176;2022-12-11T12:26:21;0.40;99.90
17202;DHT22;8717;53.588;10.176;2022-12-11T12:28:58;0.40;99.90
17202;DHT22;8717;53.588;10.176;2022-12-11T12:31:39;0.50;99.90
17202;DHT22;8717;53.588;10.176;2022-12-11T12:34:17;0.50;99.90
17202;DHT22;8717;53.588;10.176;2022-12-11T12:36:53;0.60;99.90
17202;DHT22;8717;53.588;10.176;2022-12-11T12:39:28;0.60;99.90
17202;DHT22;8717;53.588;10.176;2022-12-11T12:42:00;0.70;99.90
17202;DHT22;8717;53.588;10.176;2022-12-11T12:44:32;0.70;99.90
17202;DHT22;8717;53.588;10.176;2022-12-11T12:47:09;0.70;99.90
17202;DHT22;8717;53.588;10.176;2022-12-11T12:49:40;0.70;99.90
17202;DHT22;8717;53.588;10.176;2022-12-11T12:52:13;0.80;99.90
17202;DHT22;8717;53.588;10.176;2022-12-11T12:54:44;0.70;99.90
17202;DHT22;8717;53.588;10.176;2022-12-11T12:57:33;0.70;99.90
17202;DHT22;8717;53.588;10.176;2022-12-11T13:00:00;0.70;99.90
17202;DHT22;8717;53.588;10.176;2022-12-11T13:02:30;0.60;99.90
17202;DHT22;8717;53.588;10.176;2022-12-11T13:05:01;0.60;99.90
17202;DHT22;8717;53.588;10.176;2022-12-11T13:07:30;0.60;99.90
17202;DHT22;8717;53.588;10.176;2022-12-11T13:10:02;0.60;99.90
17202;DHT22;8717;53.588;10.176;2022-12-11T13:12:39;0.50;99.90
17202;DHT22;8717;53.588;10.176;2022-12-11T13:15:26;0.50;99.90
17202;DHT22;8717;53.588;10.176;2022-12-11T13:17:53;0.50;99.90
17202;DHT22;8717;53.588;10.176;2022-12-11T13:20:25;0.40;99.90
17202;DHT22;8717;53.588;10.176;2022-12-11T13:22:55;0.50;99.90
17202;DHT22;8717;53.588;10.176;2022-12-11T13:25:47;0.40;99.90
17202;DHT22;8717;53.588;10.176;2022-12-11T13:28:33;0.40;99.90
17202;DHT22;8717;53.588;10.176;2022-12-11T13:31:29;0.30;99.90
17202;DHT22;8717;53.588;10.176;2022-12-11T13:34:06;0.30;99.90
17202;DHT22;8717;53.588;10.176;2022-12-11T13:36:39;0.20;99.90
17202;DHT22;8717;53.588;10.176;2022-12-11T13:39:15;0.20;99.90
17202;DHT22;8717;53.588;10.176;2022-12-11T13:41:45;0.10;99.90
17202;DHT22;8717;53.588;10.176;2022-12-11T13:44:17;0.00;99.90
17202;DHT22;8717;53.588;10.176;2022-12-11T13:46:45;0.00;99.90
17202;DHT22;8717;53.588;10.176;2022-12-11T13:49:20;-0.20;99.90
17202;DHT22;8717;53.588;10.176;2022-12-11T13:51:53;-0.20;99.90
17202;DHT22;8717;53.588;10.176;2022-12-11T13:54:20;-0.40;99.90
17202;DHT22;8717;53.588;10.176;2022-12-11T13:56:53;-0.50;99.90
17202;DHT22;8717;53.588;10.176;2022-12-11T13:59:24;-0.60;99.90
17202;DHT22;8717;53.588;10.176;2022-12-11T14:01:53;-0.60;99.90
17202;DHT22;8717;53.588;10.176;2022-12-11T14:04:21;-0.70;99.90
17202;DHT22;8717;53.588;10.176;2022-12-11T14:06:50;-0.80;99.90
17202;DHT22;8717;53.588;10.176;2022-12-11T14:09:20;-0.70;99.90
17202;DHT22;8717;53.588;10.176;2022-12-11T14:11:48;-0.80;99.90
17202;DHT22;8717;53.588;10.176;2022-12-11T14:14:18;-0.80;99.90
17202;DHT22;8717;53.588;10.176;2022-12-11T14:16:47;-0.80;99.90
17202;DHT22;8717;53.588;10.176;2022-12-11T14:19:16;-0.80;99.90
17202;DHT22;8717;53.588;10.176;2022-12-11T14:21:58;-0.80;99.90
17202;DHT22;8717;53.588;10.176;2022-12-11T14:24:26;-0.80;99.90
17202;DHT22;8717;53.588;10.176;2022-12-11T14:26:53;-0.80;99.90
17202;DHT22;8717;53.588;10.176;2022-12-11T14:29:25;-0.80;99.90
17202;DHT22;8717;53.588;10.176;2022-12-11T14:32:00;-0.80;99.90
17202;DHT22;8717;53.588;10.176;2022-12-11T14:34:31;-0.80;99.90
17202;DHT22;8717;53.588;10.176;2022-12-11T14:37:02;-0.70;99.90
17202;DHT22;8717;53.588;10.176;2022-12-11T14:39:33;-0.70;99.90
17202;DHT22;8717;53.588;10.176;2022-12-11T14:42:02;-0.70;99.90
17202;DHT22;8717;53.588;10.176;2022-12-11T14:44:35;-0.70;99.90
17202;DHT22;8717;53.588;10.176;2022-12-11T14:47:11;-0.70;99.90
17202;DHT22;8717;53.588;10.176;2022-12-11T14:49:45;-0.60;99.90
17202;DHT22;8717;53.588;10.176;2022-12-11T14:52:17;-0.60;99.90
17202;DHT22;8717;53.588;10.176;2022-12-11T14:54:48;-0.60;99.90
17202;DHT22;8717;53.588;10.176;2022-12-11T14:57:19;-0.60;99.90
17202;DHT22;8717;53.588;10.176;2022-12-11T14:59:47;-0.60;99.90
17202;DHT22;8717;53.588;10.176;2022-12-11T15:02:28;-0.60;99.90
17202;DHT22;8717;53.588;10.176;2022-12-11T15:05:02;-0.60;99.90
17202;DHT22;8717;53.588;10.176;2022-12-11T15:07:32;-0.60;99.90
17202;DHT22;8717;53.588;10.176;2022-12-11T15:09:59;-0.60;99.90
17202;DHT22;8717;53.588;10.176;2022-12-11T15:12:25;-0.60;99.90
17202;DHT22;8717;53.588;10.176;2022-12-11T15:14:54;-0.60;99.90
17202;DHT22;8717;53.588;10.176;2022-12-11T15:17:23;-0.70;99.90
17202;DHT22;8717;53.588;10.176;2022-12-11T15:19:52;-0.60;99.90
17202;DHT22;8717;53.588;10.176;2022-12-11T15:22:21;-0.70;99.90
17202;DHT22;8717;53.588;10.176;2022-12-11T15:24:52;-0.70;99.90
17202;DHT22;8717;53.588;10.176;2022-12-11T15:27:31;-0.70;99.90
17202;DHT22;8717;53.588;10.176;2022-12-11T15:30:00;-0.70;99.90
17202;DHT22;8717;53.588;10.176;2022-12-11T15:32:29;-0.70;99.90
17202;DHT22;8717;53.588;10.176;2022-12-11T15:34:58;-0.80;99.90
17202;DHT22;8717;53.588;10.176;2022-12-11T15:37:27;-0.80;99.90
17202;DHT22;8717;53.588;10.176;2022-12-11T15:39:56;-0.80;99.90
17202;DHT22;8717;53.588;10.176;2022-12-11T15:42:26;-0.80;99.90
17202;DHT22;8717;53.588;10.176;2022-12-11T15:44:55;-0.80;99.90
17202;DHT22;8717;53.588;10.176;2022-12-11T15:47:23;-0.80;99.90
17202;DHT22;8717;53.588;10.176;2022-12-11T15:49:53;-0.80;99.90
17202;DHT22;8717;53.588;10.176;2022-12-11T15:52:22;-0.80;99.90
17202;DHT22;8717;53.588;10.176;2022-12-11T15:54:48;-0.80;99.90